• Join FlightAware (Why Join?)
  • Login
  • US Flag 
12:38AM EDT


 

Airport Tracker/Info


-or-


 

Live Flight TrackerFlight Track Log ✈ CTL15 ✈ 21-Aug-2013 ✈ KMGY - KBKL

Flight Track Log - Related Links

Times and Time Zones

All times are in EDT time to prevent confusion due to time zone crossing. See the CTL15 flight status page for this flight to view local times or setup timezone preferences in your user account.

Time Position Orientation Groundspeed Altitude Reporting Facility
EDT Latitude Longitude Course Direction KTS MPH feet Rate Location/Type
07:55PM 39.6225 -84.1981 55° Northeast 111 128 3,600  Level Indianapolis Center
07:56PM 39.6331 -84.1783 55° Northeast 117 135 3,900 600 Climbing Indianapolis Center
07:57PM 39.6517 -84.1475 52° Northeast 119 137 4,600 780 Climbing Indianapolis Center
07:58PM 39.6767 -84.1075 51° Northeast 121 139 5,500 720 Climbing Indianapolis Center
07:59PM 39.6975 -84.0669 56° Northeast 123 142 6,200 540 Climbing Indianapolis Center
08:00PM 39.7164 -84.0344 53° Northeast 124 143 6,700 420 Climbing Indianapolis Center
08:01PM 39.7389 -83.9981 51° Northeast 127 146 7,100 180 Climbing Indianapolis Center
08:02PM 39.7686 -83.9547 48° Northeast 149 171 7,100  Level Indianapolis Center
08:03PM 39.7967 -83.9058 53° Northeast 164 189 7,200 -60 Climbing Indianapolis Center
08:04PM 39.8275 -83.8578 50° Northeast 170 196 7,000 -120 Descending Indianapolis Center
08:05PM 39.8600 -83.8117 47° Northeast 172 198 7,000  Level Indianapolis Center
08:06PM 39.8964 -83.7706 41° Northeast 171 197 7,100  Climbing Indianapolis Center
08:07PM 39.9311 -83.7281 43° Northeast 170 196 7,000 -60 Descending Indianapolis Center
08:08PM 39.9672 -83.6856 42° Northeast 171 197 7,000  Level Indianapolis Center
08:09PM 40.0006 -83.6428 45° Northeast 169 194 7,000 60 Level Indianapolis Center
08:10PM 40.0397 -83.5925 44° Northeast 167 192 7,200  Climbing Indianapolis Center
08:11PM 40.0736 -83.5514 43° Northeast 166 191 7,100 -240 Descending Indianapolis Center
08:12PM 40.1103 -83.5047 44° Northeast 168 193 6,800 -120 Descending Indianapolis Center
08:13PM 40.1397 -83.4631 47° Northeast 166 191 6,900 60 Climbing Indianapolis Center
08:14PM 40.1717 -83.4164 48° Northeast 172 198 7,000  Climbing Indianapolis Center
08:15PM 40.2075 -83.3731 43° Northeast 173 199 7,000  Level Indianapolis Center
08:16PM 40.2433 -83.3297 43° Northeast 177 204 7,000  Level Indianapolis Center
08:17PM 40.2750 -83.2850 47° Northeast 168 193 7,000  Level Indianapolis Center
08:18PM 40.3094 -83.2411 44° Northeast 170 196 7,000 -60 Level Indianapolis Center
08:19PM 40.3444 -83.1997 42° Northeast 169 194 6,900 -60 Descending Indianapolis Center
08:20PM 40.3750 -83.1544 48° Northeast 166 191 6,900  Level Indianapolis Center
08:21PM 40.4075 -83.0997 52° Northeast 165 190 6,900  Level Indianapolis Center
08:22PM 40.4417 -83.0583 43° Northeast 165 190 7,000  Climbing Indianapolis Center
08:23PM 40.4794 -83.0239 35° Northeast 163 188 7,000  Level Indianapolis Center
08:24PM 40.5206 -82.9919 31° Northeast 166 191 7,000 -60 Level Indianapolis Center
08:25PM 40.5550 -82.9464 45° Northeast 172 198 6,900 -60 Descending Indianapolis Center
08:26PM 40.5903 -82.9061 41° Northeast 167 192 6,900  Level Indianapolis Center
08:27PM 40.6253 -82.8653 42° Northeast 167 192 6,900  Level Indianapolis Center
08:28PM 40.6589 -82.8211 45° Northeast 168 193 6,900  Level Indianapolis Center
08:30PM 40.6958 -82.7853 36° Northeast 165 190 7,000  Climbing Indianapolis Center
08:31PM 40.7317 -82.7447 41° Northeast 168 193 7,000  Level Indianapolis Center
08:33PM 40.8306 -82.6331 40° Northeast 175 201 7,000 -60 Level Cleveland Center
08:34PM 40.8625 -82.5956 42° Northeast 178 205 6,900 -60 Descending Cleveland Center
08:35PM 40.8944 -82.5553 44° Northeast 179 206 6,900 60 Level Cleveland Center
08:36PM 40.9244 -82.5094 49° Northeast 175 201 7,100  Climbing Cleveland Center
08:37PM 40.9583 -82.4664 44° Northeast 173 199 6,900 -60 Descending Cleveland Center
08:38PM 40.9944 -82.4208 44° Northeast 172 198 7,000  Climbing Cleveland Center
08:39PM 41.0267 -82.3778 45° Northeast 172 198 7,000  Level Cleveland Center
08:40PM 41.0625 -82.3372 40° Northeast 169 194 7,000 -60 Level Cleveland Center
08:41PM 41.0986 -82.2914 44° Northeast 170 196 6,900 -60 Descending Cleveland Center
08:42PM 41.1328 -82.2428 47° Northeast 181 208 6,900  Level Cleveland Center
08:43PM 41.1647 -82.1939 49° Northeast 178 205 7,000  Climbing Cleveland Center
08:44PM 41.1989 -82.1450 47° Northeast 178 205 7,000 -120 Level Cleveland Center
08:45PM 41.2328 -82.1072 40° Northeast 179 206 6,800 -420 Descending Cleveland Center
08:46PM 41.2708 -82.0611 42° Northeast 193 222 6,300 -660 Descending Cleveland Center
08:47PM 41.3131 -82.0261 32° Northeast 191 220 5,600 -840 Descending Cleveland Center
08:48PM 41.3592 -81.9939 28° Northeast 191 220 4,700 -840 Descending Cleveland Center
08:49PM 41.4033 -81.9672 24° Northeast 184 212 4,000 -900 Descending Cleveland Center
08:50PM 41.4517 -81.9267 32° Northeast 191 220 2,900 -540 Descending Cleveland Center
08:51PM 41.4878 -81.8803 44° Northeast 158 182 2,900 -240 Level Cleveland Center
08:52PM 41.5069 -81.8336 61° Northeast 161 185 2,500 -660 Descending Cleveland Center
08:53PM 41.5078 -81.7672 89° East 174 200 1,600 -660 Descending Cleveland Center
08:54PM 41.5042 -81.7200 96° East 107 123 1,200 -420 Descending Cleveland Center